Eighty Four, PA (15330)

1:25 PM EDT on July 24, 2016 (GMT -0400)
Nottingham Twp. | | Change Station
Active Advisory: Heat Advisory Active Notice: Local Storm Report

Elev 1306 ft 40.23 °N, 80.10 °W | Updated 2 seconds ago

Scattered Clouds
Scattered Clouds
89.5 °F
Feels Like 101 °F
N
5.8
Wind Variable Wind from WSW
Gusts 5.8 mph

Today
High -- | Low -- °F
--% Chance of Precip.
Yesterday
High -- | Low -- °F
Precip. -- in
Pressure 30.03 in
Visibility 10.0 miles
Clouds Few 4200 ft
Scattered Clouds 6000 ft
Heat Index 101 °F
Dew Point 76 °F
Humidity 64%
Rainfall 0.00 in
Snow Depth Not available.
6:11 AM 8:41 PM
Waning Gibbous, 74% visible
METAR KAFJ 241715Z AUTO 22006KT 10SM FEW042 SCT060 32/21 A3003 RMK AO1
Pressure 30.03 in
Visibility 10.0 miles
Clouds Few 4200 ft
Scattered Clouds 6000 ft
Heat Index 101 °F
Dew Point 76 °F
Humidity 64%
Rainfall 0.00 in
Snow Depth Not available.
6:11 AM 8:41 PM
Waning Gibbous, 74% visible
METAR KAFJ 241715Z AUTO 22006KT 10SM FEW042 SCT060 32/21 A3003 RMK AO1

10-Day Weather Forecast

Almanac

Astronomy

Jul. 24, 2016 Rise Set
Actual Time
Civil Twilight
Nautical Twilight
Astronomical Twilight
Moon
Length of Visible Light
Length of Day
Tomorrow will be .
, % of the Moon is Illuminated

Today's Extremes

State Highs State Lows

Community

WunderPhotos

Upload Photos

1,927,127 photos uploaded!

WunderBlog® & News

Nearby

Air Quality

  Air Quality AQ Index Pollutant
Not available.

Snow Depth

Station Depth Elevation

Earthquake Activity

City Distance Mag. Time & Date
Minimum magnitude displayed is 2.5.

Coastal Water Temperatures

Place Temperature

Stations

Nearby Weather Stations

Station Location Temp. Windchill Dew Point Humidity Wind Precip. Elev Updated Type
                   

Watches & Warnings

Heat Advisory
Issued: 10:57 AM EDT Jul. 24, 2016 – National Weather Service

... Heat advisory remains in effect until 8 PM EDT this evening...

* heat index values... between 100 to 104 are forecast this
afternoon and evening.

* High temperatures... lower to mid 90s.

* Dewpoints... lower 70s.

* Impacts... heat related illnesses will begin to be seen. If you
are susceptible to heat... limit your outdoor activity.

Precautionary/preparedness actions...

Drink plenty of fluids... stay in air-conditioning... stay out of
the sun... and check up on elderly relatives and neighbors. Look
before you lock... never leave children and pets unattended in a
vehicle.



98